Date,TemperatureHighF,TemperatureAvgF,TemperatureLowF,DewpointHighF,DewpointAvgF,DewpointLowF,HumidityHigh,HumidityAvg,HumidityLow,PressureMaxIn,PressureMinIn,WindSpeedMaxMPH,WindSpeedAvgMPH,GustSpeedMaxMPH,PrecipitationSumIn
2013-1-1,20,1,5,-100,-100,-100,0,0,100,30.06,29.95,26,12,31,0.00
2013-1-2,15,0,15,-100,-100,-100,0,0,100,30.06,30.06,15,9,18,0.00
2013-1-3,-200,0,200,-100,-100,-100,0,0,100,0.00,40.00,26,14,30,0.00
2013-1-4,33,2,29,-100,-100,-100,0,0,100,30.01,29.78,30,22,39,0.00
2013-1-5,32,3,27,-100,-100,-100,0,0,100,30.12,30.03,23,10,33,0.00
2013-1-6,-200,0,200,-100,-100,-100,0,0,100,0.00,40.00,13,7,16,0.00
2013-1-7,38,1,38,-100,-100,-100,0,0,100,29.82,29.82,30,16,40,0.00
2013-1-8,40,2,34,-100,-100,-100,0,0,100,30.10,30.10,17,-45,23,0.00
2013-1-9,38,2,37,-100,-100,-100,0,0,100,29.78,29.78,29,-15,38,0.00
2013-1-10,-200,0,200,-100,-100,-100,0,0,100,0.00,40.00,20,9,26,0.00
2013-1-11,-200,0,200,-100,-100,-100,0,0,100,0.00,40.00,17,8,25,0.00
2013-1-12,-200,0,200,-100,-100,-100,0,0,100,0.00,40.00,30,13,34,0.00
2013-1-13,-200,0,200,-100,-100,-100,0,0,100,0.00,40.00,13,9,17,0.00
2013-1-14,-200,0,200,-100,-100,-100,0,0,100,0.00,40.00,21,13,25,0.00
2013-1-15,-200,0,200,-100,-100,-100,0,0,100,0.00,40.00,22,12,27,0.00
2013-1-16,-200,0,200,-100,-100,-100,0,0,100,0.00,40.00,29,14,36,0.00
2013-1-17,-200,0,200,-100,-100,-100,0,0,100,0.00,40.00,32,14,37,0.00
2013-1-18,-200,0,200,-100,-100,-100,0,0,100,0.00,40.00,22,10,27,0.00
2013-1-19,-200,0,200,-100,-100,-100,0,0,100,0.00,40.00,11,6,17,0.00
2013-1-20,3,0,3,-100,-100,-100,0,0,100,29.91,29.91,27,12,34,0.00
2013-1-21,1,0,1,-100,-100,-100,0,0,100,29.89,29.89,16,6,20,0.00
2013-1-22,-1,-1,-7,-100,-100,-100,0,0,100,30.18,30.00,13,6,18,0.00
2013-1-23,7,0,-10,-100,-100,-100,0,0,100,30.25,30.00,15,6,17,0.00
2013-1-24,7,0,-10,-100,-100,-100,0,0,100,30.60,30.43,13,5,22,0.00
2013-1-25,6,0,2,-100,-100,-100,0,0,100,30.43,30.14,13,6,17,0.00
2013-1-26,-200,0,200,-100,-100,-100,0,0,100,0.00,40.00,7,3,10,0.00
2013-1-27,-200,0,200,-100,-100,-100,0,0,100,0.00,40.00,9,6,13,0.00
2013-1-28,31,2,31,-100,-100,-100,0,0,100,29.84,29.84,10,5,14,0.00
2013-1-29,34,1,34,-100,-100,-100,0,0,100,29.54,29.54,16,-18,24,0.00
2013-1-30,33,1,33,-100,-100,-100,0,0,100,29.39,29.39,17,-22,25,0.00
2013-1-31,-200,0,200,-100,-100,-100,0,0,100,0.00,40.00,22,12,27,0.00
2013-2-1,-200,0,200,-100,-100,-100,0,0,100,0.00,40.00,14,6,17,0.00
2013-2-2,-200,0,200,-100,-100,-100,0,0,100,0.00,40.00,17,8,20,0.00
2013-2-3,-200,0,200,-100,-100,-100,0,0,100,0.00,40.00,21,9,26,0.00
2013-2-4,-200,0,200,-100,-100,-100,0,0,100,0.00,40.00,14,6,17,0.00
2013-2-5,-200,0,200,-100,-100,-100,0,0,100,0.00,40.00,23,9,31,0.00
2013-2-6,-200,0,200,-100,-100,-100,0,0,100,0.00,40.00,13,6,21,0.00
2013-2-7,11,0,11,-100,-100,-100,0,0,100,30.27,30.27,12,9,17,0.00
2013-2-8,-200,0,200,-100,-100,-100,0,0,100,0.00,40.00,11,8,15,0.00
2013-2-9,-200,0,200,-100,-100,-100,0,0,100,0.00,40.00,13,6,18,0.00
2013-2-10,-200,0,200,-100,-100,-100,0,0,100,0.00,40.00,22,12,32,0.00
2013-2-11,35,1,35,-100,-100,-100,0,0,100,29.34,29.34,31,-21,40,0.00
2013-2-12,22,3,18,-100,-100,-100,0,0,100,29.83,29.82,23,-156,27,0.00
2013-2-13,30,8,-15,-100,-100,-100,0,0,100,29.81,29.66,44,-283,44,0.00
2013-2-14,30,1,30,-100,-100,-100,0,0,100,29.67,29.67,17,8,25,0.00
2013-2-15,15,0,15,-100,-100,-100,0,0,100,30.03,30.03,15,10,20,0.00
2013-2-16,-200,0,200,-100,-100,-100,0,0,100,0.00,40.00,13,7,16,0.00
2013-2-17,-200,0,200,-100,-100,-100,0,0,100,0.00,40.00,9,4,11,0.00
2013-2-18,-200,0,200,-100,-100,-100,0,0,100,0.00,40.00,21,12,32,0.00
2013-2-19,32,1,32,-100,-100,-100,0,0,100,29.19,29.19,31,-9,41,0.00
2013-2-20,-200,0,200,-100,-100,-100,0,0,100,0.00,40.00,20,14,25,0.00
2013-2-21,16,1,14,-100,-100,-100,0,0,100,30.41,30.39,16,6,19,0.00
2013-2-22,15,1,12,-100,-100,-100,0,0,100,30.34,30.16,15,10,21,0.00
2013-2-23,-200,0,200,-100,-100,-100,0,0,100,0.00,40.00,11,4,16,0.00
2013-2-24,-200,0,200,-100,-100,-100,0,0,100,0.00,40.00,13,7,15,0.00
2013-2-25,30,1,30,-100,-100,-100,0,0,100,30.18,30.18,5,3,9,0.00
2013-2-26,31,2,29,-100,-100,-100,0,0,100,30.18,30.14,14,8,20,0.00
2013-2-27,-200,0,200,-100,-100,-100,0,0,100,0.00,40.00,21,14,26,0.00
2013-2-28,-200,0,200,-100,-100,-100,0,0,100,0.00,40.00,26,18,31,0.00
2013-3-1,-200,0,200,-100,-100,-100,0,0,100,0.00,40.00,16,10,21,0.00
2013-3-2,-200,0,200,-100,-100,-100,0,0,100,0.00,40.00,18,10,24,0.00
2013-3-3,-200,0,200,-100,-100,-100,0,0,100,0.00,40.00,17,7,19,0.00
2013-3-4,-200,0,200,-100,-100,-100,0,0,100,0.00,40.00,16,7,18,0.00
2013-3-5,-200,0,200,-100,-100,-100,0,0,100,0.00,40.00,12,5,16,0.00
2013-3-6,-200,0,200,-100,-100,-100,0,0,100,0.00,40.00,16,7,24,0.00
2013-3-7,-200,0,200,-100,-100,-100,0,0,100,0.00,40.00,18,10,23,0.00
2013-3-8,40,1,29,-100,-100,-100,0,0,100,30.42,30.40,8,-14,12,0.00
2013-3-9,33,1,33,-100,-100,-100,0,0,100,30.04,30.04,18,8,24,0.00
2013-3-10,33,13,33,-100,-100,-100,0,0,100,29.93,29.93,13,11,19,0.00
2013-11-3,-200,0,200,-100,-100,-100,0,0,100,30.37,30.19,12,7,16,0.00
2013-11-4,-200,0,200,-100,-100,-100,0,0,100,30.38,30.13,20,12,33,0.00
2013-11-5,-200,0,200,-100,-100,-100,0,0,100,30.18,29.99,13,5,16,0.00
2013-11-6,-200,0,200,-100,-100,-100,0,0,100,30.00,29.57,25,11,32,0.00
2013-11-7,-200,0,200,-100,-100,-100,0,0,100,29.97,29.85,23,14,28,0.00
2013-11-8,-200,0,200,-100,-100,-100,0,0,100,30.12,29.97,12,5,19,0.00
2013-11-9,-200,0,200,-100,-100,-100,0,0,100,30.04,29.54,27,12,32,0.00
2013-11-10,-200,0,200,-100,-100,-100,0,0,100,30.08,29.59,27,17,33,0.00
2013-11-11,-200,0,200,-100,-100,-100,0,0,100,30.30,29.85,29,17,36,0.00
2013-11-12,-200,0,200,-100,-100,-100,0,0,100,30.44,30.30,25,14,30,0.00
2013-11-13,-200,0,200,-100,-100,-100,0,0,100,30.32,29.75,26,13,32,0.00
2013-11-14,-200,0,200,-100,-100,-100,0,0,100,29.78,29.73,25,11,32,0.00
2013-11-15,-200,0,200,-100,-100,-100,0,0,100,29.89,29.75,14,5,18,0.00
2013-11-16,-200,0,200,-100,-100,-100,0,0,100,29.90,29.49,17,8,24,0.00
2013-11-17,-200,0,200,-100,-100,-100,0,0,100,29.49,28.90,24,7,35,0.00
2013-11-18,45,3,31,-100,-100,-100,0,0,100,29.99,29.01,40,28,50,0.00
2013-11-19,-200,0,200,-100,-100,-100,0,0,100,30.32,29.98,24,9,30,0.00
2013-11-20,-200,0,200,-100,-100,-100,0,0,100,30.32,30.18,18,9,24,0.00
2013-11-21,-200,0,200,-100,-100,-100,0,0,100,30.18,30.10,9,4,13,0.00
2013-11-22,-200,0,200,-100,-100,-100,0,0,100,30.27,30.10,21,10,30,0.00
2013-11-23,-200,0,200,-100,-100,-100,0,0,100,30.42,30.12,28,17,36,0.00
2013-11-24,-200,0,200,-100,-100,-100,0,0,100,30.47,30.05,13,7,20,0.00
2013-11-25,-200,0,200,-100,-100,-100,0,0,100,30.07,29.70,22,13,29,0.00
2013-11-26,-200,0,200,-100,-100,-100,0,0,100,29.96,29.78,20,11,26,0.00
2013-11-27,-200,0,200,-100,-100,-100,0,0,100,30.13,29.92,21,11,27,0.00
2013-11-28,-200,0,200,-100,-100,-100,0,0,100,30.41,30.13,9,6,12,0.00
2013-11-29,-200,0,200,-100,-100,-100,0,0,100,30.56,30.41,11,6,15,0.00
2013-11-30,-200,0,200,-100,-100,-100,0,0,100,0.00,40.00,13,6,22,0.00
2013-12-1,-200,0,200,-100,-100,-100,0,0,100,0.00,40.00,11,5,15,0.00
2013-12-2,-200,0,200,-100,-100,-100,0,0,100,0.00,40.00,10,6,14,0.00
2013-12-3,-200,0,200,-100,-100,-100,0,0,100,0.00,40.00,15,9,20,0.00
2013-12-4,-200,0,200,-100,-100,-100,0,0,100,0.00,40.00,21,13,32,0.00
2013-12-5,-200,0,200,-100,-100,-100,0,0,100,0.00,40.00,33,22,40,0.00
2013-12-6,-200,0,200,-100,-100,-100,0,0,100,0.00,40.00,28,20,36,0.00
2013-12-7,-200,0,200,-100,-100,-100,0,0,100,0.00,40.00,27,21,33,0.00
2013-12-8,-200,0,200,-100,-100,-100,0,0,100,0.00,40.00,24,7,27,0.00
2013-12-9,-200,0,200,-100,-100,-100,0,0,100,0.00,40.00,34,15,40,0.00
2013-12-10,-200,0,200,-100,-100,-100,0,0,100,0.00,40.00,30,14,38,0.00
2013-12-11,-200,0,200,-100,-100,-100,0,0,100,0.00,40.00,30,16,37,0.00
2013-12-12,-200,0,200,-100,-100,-100,0,0,100,0.00,40.00,30,19,37,0.00
2013-12-13,-200,0,200,-100,-100,-100,0,0,100,0.00,40.00,24,7,44,0.00
2013-12-14,-200,0,200,-100,-100,-100,0,0,100,0.00,40.00,13,10,18,0.00
2013-12-15,-200,0,200,-100,-100,-100,0,0,100,0.00,40.00,15,8,17,0.00
2013-12-16,-200,0,200,-100,-100,-100,0,0,100,0.00,40.00,12,6,17,0.00
2013-12-17,-200,0,200,-100,-100,-100,0,0,100,0.00,40.00,13,6,19,0.00
2013-12-18,-200,0,200,-100,-100,-100,0,0,100,0.00,40.00,23,13,28,0.00
2013-12-19,-200,0,200,-100,-100,-100,0,0,100,0.00,40.00,22,9,27,0.00
2013-12-20,-200,0,200,-100,-100,-100,0,0,100,0.00,40.00,10,6,13,0.00
2013-12-21,-200,0,200,-100,-100,-100,0,0,100,0.00,40.00,14,7,20,0.00
2013-12-22,20,0,20,-100,-100,-100,0,0,100,29.92,29.92,18,6,27,0.00
2013-12-23,-200,0,200,-100,-100,-100,0,0,100,0.00,40.00,12,8,16,0.00
2013-12-24,-200,0,200,-100,-100,-100,0,0,100,0.00,40.00,10,5,12,0.00
2013-12-25,-200,0,200,-100,-100,-100,0,0,100,0.00,40.00,13,8,21,0.00
2013-12-26,-200,0,200,-100,-100,-100,0,0,100,0.00,40.00,18,7,21,0.00
2013-12-27,-200,0,200,-100,-100,-100,0,0,100,0.00,40.00,15,6,19,0.00
2013-12-28,-200,0,200,-100,-100,-100,0,0,100,0.00,40.00,17,8,22,0.00
2013-12-29,-200,0,200,-100,-100,-100,0,0,100,0.00,40.00,19,11,22,0.00
2013-12-30,-200,0,200,-100,-100,-100,0,0,100,0.00,40.00,11,5,14,0.00
2013-12-31,-200,0,200,-100,-100,-100,0,0,100,0.00,40.00,28,8,38,0.00
2014-1-1,-200,0,200,-100,-100,-100,0,0,100,0.00,40.00,11,5,13,0.00
2014-1-2,-200,0,200,-100,-100,-100,0,0,100,0.00,40.00,9,5,11,0.00